sensor_id;sensor_type;location;lat;lon;timestamp;P1;durP1;ratioP1;P2;durP2;ratioP2
68821;SDS011;55834;50.870;4.606;2024-01-15T00:00:18;24.08;;;10.07;;
68821;SDS011;55834;50.870;4.606;2024-01-15T00:02:43;26.90;;;10.48;;
68821;SDS011;55834;50.870;4.606;2024-01-15T00:05:09;22.45;;;9.40;;
68821;SDS011;55834;50.870;4.606;2024-01-15T00:07:35;23.75;;;8.40;;
68821;SDS011;55834;50.870;4.606;2024-01-15T00:10:00;24.42;;;9.23;;
68821;SDS011;55834;50.870;4.606;2024-01-15T00:12:26;19.77;;;8.65;;
68821;SDS011;55834;50.870;4.606;2024-01-15T00:14:51;20.67;;;8.52;;
68821;SDS011;55834;50.870;4.606;2024-01-15T00:17:17;18.93;;;9.27;;
68821;SDS011;55834;50.870;4.606;2024-01-15T00:19:42;20.63;;;9.37;;
68821;SDS011;55834;50.870;4.606;2024-01-15T00:22:08;19.95;;;8.77;;
68821;SDS011;55834;50.870;4.606;2024-01-15T00:24:33;20.27;;;8.20;;
68821;SDS011;55834;50.870;4.606;2024-01-15T00:26:58;17.37;;;8.30;;
68821;SDS011;55834;50.870;4.606;2024-01-15T00:29:24;21.00;;;9.63;;
68821;SDS011;55834;50.870;4.606;2024-01-15T00:31:49;27.33;;;10.80;;
68821;SDS011;55834;50.870;4.606;2024-01-15T00:34:14;20.13;;;8.33;;
68821;SDS011;55834;50.870;4.606;2024-01-15T00:36:40;19.73;;;7.47;;
68821;SDS011;55834;50.870;4.606;2024-01-15T00:39:05;21.73;;;8.02;;
68821;SDS011;55834;50.870;4.606;2024-01-15T00:41:31;14.77;;;7.00;;
68821;SDS011;55834;50.870;4.606;2024-01-15T00:43:56;22.50;;;8.27;;
68821;SDS011;55834;50.870;4.606;2024-01-15T00:46:22;18.95;;;8.15;;
68821;SDS011;55834;50.870;4.606;2024-01-15T00:48:47;14.47;;;6.27;;
68821;SDS011;55834;50.870;4.606;2024-01-15T00:51:13;17.80;;;6.15;;
68821;SDS011;55834;50.870;4.606;2024-01-15T00:53:38;15.35;;;6.53;;
68821;SDS011;55834;50.870;4.606;2024-01-15T00:56:04;13.48;;;6.57;;
68821;SDS011;55834;50.870;4.606;2024-01-15T00:58:29;14.25;;;6.32;;
68821;SDS011;55834;50.870;4.606;2024-01-15T01:00:54;16.40;;;6.50;;
68821;SDS011;55834;50.870;4.606;2024-01-15T01:03:20;15.50;;;6.60;;
68821;SDS011;55834;50.870;4.606;2024-01-15T01:05:46;16.08;;;6.85;;
68821;SDS011;55834;50.870;4.606;2024-01-15T01:08:13;13.73;;;6.57;;
68821;SDS011;55834;50.870;4.606;2024-01-15T01:10:39;11.80;;;6.30;;
68821;SDS011;55834;50.870;4.606;2024-01-15T01:13:04;12.20;;;6.18;;
68821;SDS011;55834;50.870;4.606;2024-01-15T01:15:30;11.53;;;5.47;;
68821;SDS011;55834;50.870;4.606;2024-01-15T01:17:55;10.63;;;5.07;;
68821;SDS011;55834;50.870;4.606;2024-01-15T01:20:21;9.70;;;4.23;;
68821;SDS011;55834;50.870;4.606;2024-01-15T01:22:46;11.07;;;5.97;;
68821;SDS011;55834;50.870;4.606;2024-01-15T01:25:12;13.98;;;5.95;;
68821;SDS011;55834;50.870;4.606;2024-01-15T01:27:37;12.23;;;5.40;;
68821;SDS011;55834;50.870;4.606;2024-01-15T01:30:02;10.17;;;5.73;;
68821;SDS011;55834;50.870;4.606;2024-01-15T01:32:28;8.63;;;4.55;;
68821;SDS011;55834;50.870;4.606;2024-01-15T01:34:54;12.47;;;4.93;;
68821;SDS011;55834;50.870;4.606;2024-01-15T01:37:19;8.05;;;4.47;;
68821;SDS011;55834;50.870;4.606;2024-01-15T01:39:45;11.73;;;5.35;;
68821;SDS011;55834;50.870;4.606;2024-01-15T01:42:10;10.75;;;3.88;;
68821;SDS011;55834;50.870;4.606;2024-01-15T01:44:36;9.77;;;4.78;;
68821;SDS011;55834;50.870;4.606;2024-01-15T01:47:02;11.18;;;4.70;;
68821;SDS011;55834;50.870;4.606;2024-01-15T01:49:29;5.95;;;3.75;;
68821;SDS011;55834;50.870;4.606;2024-01-15T01:51:58;9.25;;;4.63;;
68821;SDS011;55834;50.870;4.606;2024-01-15T01:54:25;7.00;;;3.78;;
68821;SDS011;55834;50.870;4.606;2024-01-15T01:56:54;7.80;;;4.60;;
68821;SDS011;55834;50.870;4.606;2024-01-15T01:59:20;10.32;;;4.20;;
68821;SDS011;55834;50.870;4.606;2024-01-15T02:01:48;6.63;;;4.30;;
68821;SDS011;55834;50.870;4.606;2024-01-15T02:04:15;7.63;;;4.88;;
68821;SDS011;55834;50.870;4.606;2024-01-15T02:06:41;8.00;;;3.72;;
68821;SDS011;55834;50.870;4.606;2024-01-15T02:09:07;7.03;;;4.72;;
68821;SDS011;55834;50.870;4.606;2024-01-15T02:11:33;8.35;;;4.45;;
68821;SDS011;55834;50.870;4.606;2024-01-15T02:13:58;9.93;;;5.95;;
68821;SDS011;55834;50.870;4.606;2024-01-15T02:16:24;7.70;;;3.95;;
68821;SDS011;55834;50.870;4.606;2024-01-15T02:18:50;7.87;;;4.73;;
68821;SDS011;55834;50.870;4.606;2024-01-15T02:21:15;7.30;;;4.27;;
68821;SDS011;55834;50.870;4.606;2024-01-15T02:23:40;5.78;;;4.35;;
68821;SDS011;55834;50.870;4.606;2024-01-15T02:26:06;6.63;;;4.00;;
68821;SDS011;55834;50.870;4.606;2024-01-15T02:28:32;7.05;;;4.28;;
68821;SDS011;55834;50.870;4.606;2024-01-15T02:30:58;7.80;;;4.32;;
68821;SDS011;55834;50.870;4.606;2024-01-15T02:33:23;5.73;;;4.20;;
68821;SDS011;55834;50.870;4.606;2024-01-15T02:35:48;7.73;;;3.97;;
68821;SDS011;55834;50.870;4.606;2024-01-15T02:38:15;6.05;;;3.15;;
68821;SDS011;55834;50.870;4.606;2024-01-15T02:40:40;7.35;;;3.28;;
68821;SDS011;55834;50.870;4.606;2024-01-15T02:43:06;7.60;;;3.70;;
68821;SDS011;55834;50.870;4.606;2024-01-15T02:45:31;6.32;;;3.58;;
68821;SDS011;55834;50.870;4.606;2024-01-15T02:47:57;6.43;;;3.77;;
68821;SDS011;55834;50.870;4.606;2024-01-15T02:50:22;5.97;;;3.83;;
68821;SDS011;55834;50.870;4.606;2024-01-15T02:52:48;6.43;;;3.65;;
68821;SDS011;55834;50.870;4.606;2024-01-15T02:55:13;6.88;;;3.90;;
68821;SDS011;55834;50.870;4.606;2024-01-15T02:57:38;5.68;;;3.58;;
68821;SDS011;55834;50.870;4.606;2024-01-15T03:00:04;6.13;;;3.33;;
68821;SDS011;55834;50.870;4.606;2024-01-15T03:02:30;5.57;;;3.20;;
68821;SDS011;55834;50.870;4.606;2024-01-15T03:04:58;4.85;;;3.05;;
68821;SDS011;55834;50.870;4.606;2024-01-15T03:07:24;9.00;;;3.90;;
68821;SDS011;55834;50.870;4.606;2024-01-15T03:09:49;3.75;;;3.08;;
68821;SDS011;55834;50.870;4.606;2024-01-15T03:12:15;7.00;;;3.55;;
68821;SDS011;55834;50.870;4.606;2024-01-15T03:14:40;4.97;;;2.88;;
68821;SDS011;55834;50.870;4.606;2024-01-15T03:17:06;6.78;;;3.72;;
68821;SDS011;55834;50.870;4.606;2024-01-15T03:19:34;5.75;;;3.95;;
68821;SDS011;55834;50.870;4.606;2024-01-15T03:22:00;6.45;;;3.88;;
68821;SDS011;55834;50.870;4.606;2024-01-15T03:24:27;5.25;;;3.47;;
68821;SDS011;55834;50.870;4.606;2024-01-15T03:26:53;5.70;;;3.50;;
68821;SDS011;55834;50.870;4.606;2024-01-15T03:29:18;5.07;;;3.60;;
68821;SDS011;55834;50.870;4.606;2024-01-15T03:31:44;8.07;;;4.07;;
68821;SDS011;55834;50.870;4.606;2024-01-15T03:34:09;7.70;;;4.07;;
68821;SDS011;55834;50.870;4.606;2024-01-15T03:36:34;7.60;;;3.90;;
68821;SDS011;55834;50.870;4.606;2024-01-15T03:39:00;6.63;;;4.37;;
68821;SDS011;55834;50.870;4.606;2024-01-15T03:41:25;8.97;;;4.20;;
68821;SDS011;55834;50.870;4.606;2024-01-15T03:43:50;8.02;;;4.45;;
68821;SDS011;55834;50.870;4.606;2024-01-15T03:46:16;6.60;;;4.20;;
68821;SDS011;55834;50.870;4.606;2024-01-15T03:48:41;8.53;;;4.67;;
68821;SDS011;55834;50.870;4.606;2024-01-15T03:51:07;9.40;;;3.97;;
68821;SDS011;55834;50.870;4.606;2024-01-15T03:53:32;8.50;;;4.27;;
68821;SDS011;55834;50.870;4.606;2024-01-15T03:55:57;8.87;;;4.63;;
68821;SDS011;55834;50.870;4.606;2024-01-15T03:58:23;10.10;;;4.70;;
68821;SDS011;55834;50.870;4.606;2024-01-15T04:00:48;11.48;;;5.25;;
68821;SDS011;55834;50.870;4.606;2024-01-15T04:03:14;9.35;;;4.90;;
68821;SDS011;55834;50.870;4.606;2024-01-15T04:05:39;9.03;;;4.77;;
68821;SDS011;55834;50.870;4.606;2024-01-15T04:08:04;8.30;;;4.57;;
68821;SDS011;55834;50.870;4.606;2024-01-15T04:10:30;10.15;;;5.03;;
68821;SDS011;55834;50.870;4.606;2024-01-15T04:12:56;12.85;;;5.10;;
68821;SDS011;55834;50.870;4.606;2024-01-15T04:15:22;10.88;;;6.88;;
68821;SDS011;55834;50.870;4.606;2024-01-15T04:17:47;11.20;;;5.53;;
68821;SDS011;55834;50.870;4.606;2024-01-15T04:20:12;10.37;;;5.40;;
68821;SDS011;55834;50.870;4.606;2024-01-15T04:22:38;10.73;;;5.65;;
68821;SDS011;55834;50.870;4.606;2024-01-15T04:25:03;13.10;;;7.33;;
68821;SDS011;55834;50.870;4.606;2024-01-15T04:27:30;11.88;;;5.88;;
68821;SDS011;55834;50.870;4.606;2024-01-15T04:29:55;15.37;;;6.37;;
68821;SDS011;55834;50.870;4.606;2024-01-15T04:32:20;11.23;;;5.67;;
68821;SDS011;55834;50.870;4.606;2024-01-15T04:34:46;16.97;;;6.40;;
68821;SDS011;55834;50.870;4.606;2024-01-15T04:37:11;17.53;;;8.17;;
68821;SDS011;55834;50.870;4.606;2024-01-15T04:39:38;13.57;;;7.70;;
68821;SDS011;55834;50.870;4.606;2024-01-15T04:42:04;16.25;;;7.35;;
68821;SDS011;55834;50.870;4.606;2024-01-15T04:44:29;14.52;;;7.30;;
68821;SDS011;55834;50.870;4.606;2024-01-15T04:46:55;15.67;;;8.03;;
68821;SDS011;55834;50.870;4.606;2024-01-15T04:49:20;14.70;;;7.10;;
68821;SDS011;55834;50.870;4.606;2024-01-15T04:51:46;15.38;;;6.55;;
68821;SDS011;55834;50.870;4.606;2024-01-15T04:54:11;17.67;;;7.63;;
68821;SDS011;55834;50.870;4.606;2024-01-15T04:56:36;12.20;;;6.57;;
68821;SDS011;55834;50.870;4.606;2024-01-15T04:59:02;11.25;;;6.22;;
68821;SDS011;55834;50.870;4.606;2024-01-15T05:01:31;13.10;;;7.30;;
68821;SDS011;55834;50.870;4.606;2024-01-15T05:03:57;16.13;;;7.00;;
68821;SDS011;55834;50.870;4.606;2024-01-15T05:06:22;13.63;;;6.33;;
68821;SDS011;55834;50.870;4.606;2024-01-15T05:08:48;13.80;;;7.23;;
68821;SDS011;55834;50.870;4.606;2024-01-15T05:11:13;12.47;;;5.70;;
68821;SDS011;55834;50.870;4.606;2024-01-15T05:13:38;11.40;;;5.80;;
68821;SDS011;55834;50.870;4.606;2024-01-15T05:16:04;12.77;;;6.80;;
68821;SDS011;55834;50.870;4.606;2024-01-15T05:18:29;12.18;;;6.63;;
68821;SDS011;55834;50.870;4.606;2024-01-15T05:20:55;9.77;;;4.90;;
68821;SDS011;55834;50.870;4.606;2024-01-15T05:23:20;12.87;;;8.13;;
68821;SDS011;55834;50.870;4.606;2024-01-15T05:25:45;12.50;;;6.33;;
68821;SDS011;55834;50.870;4.606;2024-01-15T05:28:11;14.52;;;5.88;;
68821;SDS011;55834;50.870;4.606;2024-01-15T05:30:36;12.90;;;6.05;;
68821;SDS011;55834;50.870;4.606;2024-01-15T05:33:02;9.20;;;4.73;;
68821;SDS011;55834;50.870;4.606;2024-01-15T05:35:28;15.48;;;6.18;;
68821;SDS011;55834;50.870;4.606;2024-01-15T05:37:53;11.32;;;5.35;;
68821;SDS011;55834;50.870;4.606;2024-01-15T05:40:19;9.60;;;5.70;;
68821;SDS011;55834;50.870;4.606;2024-01-15T05:42:44;12.23;;;4.50;;
68821;SDS011;55834;50.870;4.606;2024-01-15T05:45:09;15.03;;;6.47;;
68821;SDS011;55834;50.870;4.606;2024-01-15T05:47:35;10.32;;;4.20;;
68821;SDS011;55834;50.870;4.606;2024-01-15T05:50:00;7.27;;;4.10;;
68821;SDS011;55834;50.870;4.606;2024-01-15T05:52:27;6.75;;;4.55;;
68821;SDS011;55834;50.870;4.606;2024-01-15T05:54:52;7.70;;;4.10;;
68821;SDS011;55834;50.870;4.606;2024-01-15T05:57:18;5.27;;;3.37;;
68821;SDS011;55834;50.870;4.606;2024-01-15T05:59:44;6.97;;;3.43;;
68821;SDS011;55834;50.870;4.606;2024-01-15T06:02:09;5.35;;;3.70;;
68821;SDS011;55834;50.870;4.606;2024-01-15T06:04:35;5.10;;;2.85;;
68821;SDS011;55834;50.870;4.606;2024-01-15T06:07:01;6.50;;;3.05;;
68821;SDS011;55834;50.870;4.606;2024-01-15T06:09:26;3.30;;;2.80;;
68821;SDS011;55834;50.870;4.606;2024-01-15T06:11:52;7.53;;;2.20;;
68821;SDS011;55834;50.870;4.606;2024-01-15T06:14:18;3.77;;;2.30;;
68821;SDS011;55834;50.870;4.606;2024-01-15T06:16:43;4.03;;;1.90;;
68821;SDS011;55834;50.870;4.606;2024-01-15T06:19:08;4.53;;;2.10;;
68821;SDS011;55834;50.870;4.606;2024-01-15T06:21:34;3.03;;;2.10;;
68821;SDS011;55834;50.870;4.606;2024-01-15T06:23:59;3.77;;;2.50;;
68821;SDS011;55834;50.870;4.606;2024-01-15T06:26:25;6.32;;;2.88;;
68821;SDS011;55834;50.870;4.606;2024-01-15T06:28:50;2.22;;;2.00;;
68821;SDS011;55834;50.870;4.606;2024-01-15T06:31:15;4.67;;;2.60;;
68821;SDS011;55834;50.870;4.606;2024-01-15T06:33:41;3.08;;;1.60;;
68821;SDS011;55834;50.870;4.606;2024-01-15T06:36:07;3.92;;;2.35;;
68821;SDS011;55834;50.870;4.606;2024-01-15T06:38:32;2.90;;;2.28;;
68821;SDS011;55834;50.870;4.606;2024-01-15T06:40:58;3.07;;;2.23;;
68821;SDS011;55834;50.870;4.606;2024-01-15T06:43:23;3.33;;;1.42;;
68821;SDS011;55834;50.870;4.606;2024-01-15T06:45:48;4.57;;;1.45;;
68821;SDS011;55834;50.870;4.606;2024-01-15T06:48:14;4.80;;;1.38;;
68821;SDS011;55834;50.870;4.606;2024-01-15T06:50:41;1.60;;;1.40;;
68821;SDS011;55834;50.870;4.606;2024-01-15T06:53:10;3.20;;;1.10;;
68821;SDS011;55834;50.870;4.606;2024-01-15T06:55:35;1.13;;;1.00;;
68821;SDS011;55834;50.870;4.606;2024-01-15T06:58:01;2.47;;;1.35;;
68821;SDS011;55834;50.870;4.606;2024-01-15T07:00:26;1.37;;;1.10;;
68821;SDS011;55834;50.870;4.606;2024-01-15T07:02:52;2.70;;;1.73;;
68821;SDS011;55834;50.870;4.606;2024-01-15T07:05:19;5.13;;;1.73;;
68821;SDS011;55834;50.870;4.606;2024-01-15T07:07:45;6.32;;;1.30;;
68821;SDS011;55834;50.870;4.606;2024-01-15T07:10:11;2.53;;;1.67;;
68821;SDS011;55834;50.870;4.606;2024-01-15T07:12:36;1.77;;;1.13;;
68821;SDS011;55834;50.870;4.606;2024-01-15T07:15:02;3.03;;;1.42;;
68821;SDS011;55834;50.870;4.606;2024-01-15T07:17:27;3.17;;;1.52;;
68821;SDS011;55834;50.870;4.606;2024-01-15T07:19:53;3.30;;;1.43;;
68821;SDS011;55834;50.870;4.606;2024-01-15T07:22:18;3.58;;;2.10;;
68821;SDS011;55834;50.870;4.606;2024-01-15T07:24:44;2.28;;;1.35;;
68821;SDS011;55834;50.870;4.606;2024-01-15T07:27:10;10.95;;;2.58;;
68821;SDS011;55834;50.870;4.606;2024-01-15T07:29:36;2.70;;;1.48;;
68821;SDS011;55834;50.870;4.606;2024-01-15T07:32:02;6.18;;;2.08;;
68821;SDS011;55834;50.870;4.606;2024-01-15T07:34:28;1.85;;;1.48;;
68821;SDS011;55834;50.870;4.606;2024-01-15T07:36:54;5.15;;;2.50;;
68821;SDS011;55834;50.870;4.606;2024-01-15T07:39:19;2.85;;;2.08;;
68821;SDS011;55834;50.870;4.606;2024-01-15T07:41:45;3.27;;;2.00;;
68821;SDS011;55834;50.870;4.606;2024-01-15T07:44:10;6.37;;;2.27;;
68821;SDS011;55834;50.870;4.606;2024-01-15T07:46:35;3.28;;;2.22;;
68821;SDS011;55834;50.870;4.606;2024-01-15T07:49:01;2.42;;;2.13;;
68821;SDS011;55834;50.870;4.606;2024-01-15T07:51:26;7.90;;;2.23;;
68821;SDS011;55834;50.870;4.606;2024-01-15T07:53:53;3.15;;;2.45;;
68821;SDS011;55834;50.870;4.606;2024-01-15T07:56:19;5.65;;;2.38;;
68821;SDS011;55834;50.870;4.606;2024-01-15T07:58:44;4.72;;;2.90;;
68821;SDS011;55834;50.870;4.606;2024-01-15T08:01:10;3.00;;;1.88;;
68821;SDS011;55834;50.870;4.606;2024-01-15T08:03:35;4.57;;;2.10;;
68821;SDS011;55834;50.870;4.606;2024-01-15T08:06:01;3.92;;;1.95;;
68821;SDS011;55834;50.870;4.606;2024-01-15T08:08:27;4.68;;;2.13;;
68821;SDS011;55834;50.870;4.606;2024-01-15T08:10:53;3.83;;;2.03;;
68821;SDS011;55834;50.870;4.606;2024-01-15T08:13:18;2.23;;;2.07;;
68821;SDS011;55834;50.870;4.606;2024-01-15T08:15:45;4.15;;;2.20;;
68821;SDS011;55834;50.870;4.606;2024-01-15T08:18:11;3.95;;;2.72;;
68821;SDS011;55834;50.870;4.606;2024-01-15T08:20:37;5.07;;;2.42;;
68821;SDS011;55834;50.870;4.606;2024-01-15T08:23:02;4.35;;;2.63;;
68821;SDS011;55834;50.870;4.606;2024-01-15T08:25:28;3.58;;;2.55;;
68821;SDS011;55834;50.870;4.606;2024-01-15T08:27:53;5.18;;;2.63;;
68821;SDS011;55834;50.870;4.606;2024-01-15T08:30:19;3.90;;;2.10;;
68821;SDS011;55834;50.870;4.606;2024-01-15T08:32:45;4.00;;;2.25;;
68821;SDS011;55834;50.870;4.606;2024-01-15T08:35:13;3.35;;;2.22;;
68821;SDS011;55834;50.870;4.606;2024-01-15T08:37:39;2.45;;;1.77;;
68821;SDS011;55834;50.870;4.606;2024-01-15T08:40:04;2.28;;;1.70;;
68821;SDS011;55834;50.870;4.606;2024-01-15T08:42:30;4.18;;;2.40;;
68821;SDS011;55834;50.870;4.606;2024-01-15T08:44:55;7.67;;;2.30;;
68821;SDS011;55834;50.870;4.606;2024-01-15T08:47:21;5.90;;;1.73;;
68821;SDS011;55834;50.870;4.606;2024-01-15T08:49:46;2.00;;;1.57;;
68821;SDS011;55834;50.870;4.606;2024-01-15T08:52:11;4.95;;;1.90;;
68821;SDS011;55834;50.870;4.606;2024-01-15T08:54:37;3.58;;;2.05;;
68821;SDS011;55834;50.870;4.606;2024-01-15T08:57:03;9.95;;;2.13;;
68821;SDS011;55834;50.870;4.606;2024-01-15T08:59:28;8.77;;;2.25;;
68821;SDS011;55834;50.870;4.606;2024-01-15T09:01:53;3.13;;;1.43;;
68821;SDS011;55834;50.870;4.606;2024-01-15T09:04:22;2.20;;;1.20;;
68821;SDS011;55834;50.870;4.606;2024-01-15T09:06:47;4.25;;;1.85;;
68821;SDS011;55834;50.870;4.606;2024-01-15T09:09:13;8.23;;;3.23;;
68821;SDS011;55834;50.870;4.606;2024-01-15T09:11:41;5.18;;;2.05;;
68821;SDS011;55834;50.870;4.606;2024-01-15T09:14:07;6.25;;;1.70;;
68821;SDS011;55834;50.870;4.606;2024-01-15T09:16:34;3.72;;;1.48;;
68821;SDS011;55834;50.870;4.606;2024-01-15T09:18:59;4.30;;;1.52;;
68821;SDS011;55834;50.870;4.606;2024-01-15T09:21:25;4.40;;;1.98;;
68821;SDS011;55834;50.870;4.606;2024-01-15T09:23:50;11.48;;;2.42;;
68821;SDS011;55834;50.870;4.606;2024-01-15T09:26:16;3.28;;;1.20;;
68821;SDS011;55834;50.870;4.606;2024-01-15T09:28:42;6.28;;;1.38;;
68821;SDS011;55834;50.870;4.606;2024-01-15T09:31:07;4.30;;;1.70;;
68821;SDS011;55834;50.870;4.606;2024-01-15T09:33:33;5.60;;;1.60;;
68821;SDS011;55834;50.870;4.606;2024-01-15T09:36:01;5.40;;;1.67;;
68821;SDS011;55834;50.870;4.606;2024-01-15T09:38:29;2.25;;;1.10;;
68821;SDS011;55834;50.870;4.606;2024-01-15T09:40:57;2.78;;;1.35;;
68821;SDS011;55834;50.870;4.606;2024-01-15T09:43:23;2.88;;;1.58;;
68821;SDS011;55834;50.870;4.606;2024-01-15T09:45:51;1.95;;;1.75;;
68821;SDS011;55834;50.870;4.606;2024-01-15T09:48:18;3.50;;;1.52;;
68821;SDS011;55834;50.870;4.606;2024-01-15T09:50:44;5.30;;;1.63;;
68821;SDS011;55834;50.870;4.606;2024-01-15T09:53:10;2.28;;;1.10;;
68821;SDS011;55834;50.870;4.606;2024-01-15T09:55:36;4.03;;;1.75;;
68821;SDS011;55834;50.870;4.606;2024-01-15T09:58:06;4.55;;;1.40;;
68821;SDS011;55834;50.870;4.606;2024-01-15T10:00:33;5.35;;;1.17;;
68821;SDS011;55834;50.870;4.606;2024-01-15T10:03:04;3.28;;;0.85;;
68821;SDS011;55834;50.870;4.606;2024-01-15T10:05:30;2.40;;;1.10;;
68821;SDS011;55834;50.870;4.606;2024-01-15T10:07:56;9.13;;;2.08;;
68821;SDS011;55834;50.870;4.606;2024-01-15T10:10:22;7.47;;;1.77;;
68821;SDS011;55834;50.870;4.606;2024-01-15T10:12:49;3.30;;;1.50;;
68821;SDS011;55834;50.870;4.606;2024-01-15T10:15:14;2.17;;;1.52;;
68821;SDS011;55834;50.870;4.606;2024-01-15T10:17:40;8.23;;;1.40;;
68821;SDS011;55834;50.870;4.606;2024-01-15T10:20:11;3.40;;;2.38;;
68821;SDS011;55834;50.870;4.606;2024-01-15T10:22:44;3.30;;;1.25;;
68821;SDS011;55834;50.870;4.606;2024-01-15T10:25:12;6.78;;;1.30;;
68821;SDS011;55834;50.870;4.606;2024-01-15T10:27:38;3.22;;;1.35;;
68821;SDS011;55834;50.870;4.606;2024-01-15T10:30:05;9.45;;;2.65;;
68821;SDS011;55834;50.870;4.606;2024-01-15T10:32:31;3.22;;;1.05;;
68821;SDS011;55834;50.870;4.606;2024-01-15T10:34:57;3.40;;;1.65;;
68821;SDS011;55834;50.870;4.606;2024-01-15T10:37:24;6.45;;;2.15;;
68821;SDS011;55834;50.870;4.606;2024-01-15T10:39:49;5.65;;;1.23;;
68821;SDS011;55834;50.870;4.606;2024-01-15T10:42:15;1.40;;;1.17;;
68821;SDS011;55834;50.870;4.606;2024-01-15T10:44:43;2.38;;;1.10;;
68821;SDS011;55834;50.870;4.606;2024-01-15T10:47:09;7.32;;;1.98;;
68821;SDS011;55834;50.870;4.606;2024-01-15T10:49:36;5.30;;;1.08;;
68821;SDS011;55834;50.870;4.606;2024-01-15T10:52:01;7.22;;;1.38;;
68821;SDS011;55834;50.870;4.606;2024-01-15T10:54:27;4.40;;;1.90;;
68821;SDS011;55834;50.870;4.606;2024-01-15T10:56:53;2.33;;;1.35;;
68821;SDS011;55834;50.870;4.606;2024-01-15T10:59:21;3.30;;;1.42;;
68821;SDS011;55834;50.870;4.606;2024-01-15T11:01:47;1.38;;;1.20;;
68821;SDS011;55834;50.870;4.606;2024-01-15T11:04:14;4.28;;;1.75;;
68821;SDS011;55834;50.870;4.606;2024-01-15T11:06:43;3.22;;;1.35;;
68821;SDS011;55834;50.870;4.606;2024-01-15T11:09:10;3.85;;;1.75;;
68821;SDS011;55834;50.870;4.606;2024-01-15T11:11:41;2.72;;;1.52;;
68821;SDS011;55834;50.870;4.606;2024-01-15T11:14:08;4.82;;;1.35;;
68821;SDS011;55834;50.870;4.606;2024-01-15T11:16:53;6.13;;;1.75;;
68821;SDS011;55834;50.870;4.606;2024-01-15T11:19:46;3.17;;;1.00;;
68821;SDS011;55834;50.870;4.606;2024-01-15T11:25:02;2.47;;;1.00;;
68821;SDS011;55834;50.870;4.606;2024-01-15T11:27:45;5.57;;;1.48;;
68821;SDS011;55834;50.870;4.606;2024-01-15T11:30:18;4.47;;;1.27;;
68821;SDS011;55834;50.870;4.606;2024-01-15T11:32:46;6.30;;;1.45;;
68821;SDS011;55834;50.870;4.606;2024-01-15T11:35:12;3.80;;;1.10;;
68821;SDS011;55834;50.870;4.606;2024-01-15T11:40:23;1.75;;;0.93;;
68821;SDS011;55834;50.870;4.606;2024-01-15T11:43:02;2.58;;;1.15;;
68821;SDS011;55834;50.870;4.606;2024-01-15T11:45:29;3.42;;;1.35;;
68821;SDS011;55834;50.870;4.606;2024-01-15T11:50:41;4.40;;;1.75;;
68821;SDS011;55834;50.870;4.606;2024-01-15T11:53:12;6.10;;;1.95;;
68821;SDS011;55834;50.870;4.606;2024-01-15T11:55:41;3.42;;;1.70;;
68821;SDS011;55834;50.870;4.606;2024-01-15T11:58:14;7.85;;;2.45;;
68821;SDS011;55834;50.870;4.606;2024-01-15T12:00:58;4.13;;;1.20;;
68821;SDS011;55834;50.870;4.606;2024-01-15T12:03:23;5.38;;;1.25;;
68821;SDS011;55834;50.870;4.606;2024-01-15T12:05:49;2.72;;;0.88;;
68821;SDS011;55834;50.870;4.606;2024-01-15T12:08:20;6.20;;;1.33;;
68821;SDS011;55834;50.870;4.606;2024-01-15T12:10:48;4.88;;;1.15;;
68821;SDS011;55834;50.870;4.606;2024-01-15T12:13:14;3.30;;;1.50;;
68821;SDS011;55834;50.870;4.606;2024-01-15T12:15:41;4.35;;;1.50;;
68821;SDS011;55834;50.870;4.606;2024-01-15T12:18:08;3.60;;;1.48;;
68821;SDS011;55834;50.870;4.606;2024-01-15T12:20:35;1.50;;;1.08;;
68821;SDS011;55834;50.870;4.606;2024-01-15T12:23:01;4.88;;;1.75;;
68821;SDS011;55834;50.870;4.606;2024-01-15T12:25:31;1.65;;;0.70;;
68821;SDS011;55834;50.870;4.606;2024-01-15T12:27:57;4.85;;;1.65;;
68821;SDS011;55834;50.870;4.606;2024-01-15T12:30:25;2.55;;;0.98;;
68821;SDS011;55834;50.870;4.606;2024-01-15T12:35:16;4.17;;;1.30;;
68821;SDS011;55834;50.870;4.606;2024-01-15T12:37:42;4.53;;;1.47;;
68821;SDS011;55834;50.870;4.606;2024-01-15T12:40:09;2.60;;;1.02;;
68821;SDS011;55834;50.870;4.606;2024-01-15T12:42:44;4.05;;;1.33;;
68821;SDS011;55834;50.870;4.606;2024-01-15T12:45:11;6.10;;;1.45;;
68821;SDS011;55834;50.870;4.606;2024-01-15T12:50:06;2.70;;;1.38;;
68821;SDS011;55834;50.870;4.606;2024-01-15T12:52:32;1.95;;;0.90;;
68821;SDS011;55834;50.870;4.606;2024-01-15T12:54:58;2.23;;;1.17;;
68821;SDS011;55834;50.870;4.606;2024-01-15T12:57:23;6.10;;;1.67;;
68821;SDS011;55834;50.870;4.606;2024-01-15T12:59:49;7.60;;;1.73;;
68821;SDS011;55834;50.870;4.606;2024-01-15T13:02:17;3.50;;;1.50;;
68821;SDS011;55834;50.870;4.606;2024-01-15T13:04:43;4.72;;;1.73;;
68821;SDS011;55834;50.870;4.606;2024-01-15T13:07:08;3.70;;;1.45;;
68821;SDS011;55834;50.870;4.606;2024-01-15T13:09:34;7.50;;;2.47;;
68821;SDS011;55834;50.870;4.606;2024-01-15T13:12:00;6.70;;;3.00;;
68821;SDS011;55834;50.870;4.606;2024-01-15T13:14:30;6.50;;;1.23;;
68821;SDS011;55834;50.870;4.606;2024-01-15T13:16:56;7.82;;;1.60;;
68821;SDS011;55834;50.870;4.606;2024-01-15T13:19:22;4.65;;;1.58;;
68821;SDS011;55834;50.870;4.606;2024-01-15T13:21:48;0.90;;;0.80;;
68821;SDS011;55834;50.870;4.606;2024-01-15T13:24:22;2.60;;;1.08;;
68821;SDS011;55834;50.870;4.606;2024-01-15T13:26:47;1.92;;;1.20;;
68821;SDS011;55834;50.870;4.606;2024-01-15T13:29:13;0.85;;;0.82;;
68821;SDS011;55834;50.870;4.606;2024-01-15T13:31:39;1.52;;;0.88;;
68821;SDS011;55834;50.870;4.606;2024-01-15T13:34:04;0.70;;;0.70;;
68821;SDS011;55834;50.870;4.606;2024-01-15T13:36:32;1.50;;;1.40;;
68821;SDS011;55834;50.870;4.606;2024-01-15T13:38:58;1.20;;;1.20;;
68821;SDS011;55834;50.870;4.606;2024-01-15T13:41:25;1.30;;;1.30;;
68821;SDS011;55834;50.870;4.606;2024-01-15T13:43:54;1.70;;;1.48;;
68821;SDS011;55834;50.870;4.606;2024-01-15T13:46:24;1.65;;;1.17;;
68821;SDS011;55834;50.870;4.606;2024-01-15T13:48:54;2.00;;;0.80;;
68821;SDS011;55834;50.870;4.606;2024-01-15T13:51:22;1.65;;;1.10;;
68821;SDS011;55834;50.870;4.606;2024-01-15T13:53:48;1.98;;;1.80;;
68821;SDS011;55834;50.870;4.606;2024-01-15T13:56:14;1.10;;;1.10;;
68821;SDS011;55834;50.870;4.606;2024-01-15T13:58:40;2.85;;;1.60;;
68821;SDS011;55834;50.870;4.606;2024-01-15T14:01:05;2.63;;;1.50;;
68821;SDS011;55834;50.870;4.606;2024-01-15T14:03:31;1.52;;;0.93;;
68821;SDS011;55834;50.870;4.606;2024-01-15T14:05:57;1.10;;;1.00;;
68821;SDS011;55834;50.870;4.606;2024-01-15T14:08:23;0.88;;;0.88;;
68821;SDS011;55834;50.870;4.606;2024-01-15T14:10:48;5.95;;;1.30;;
68821;SDS011;55834;50.870;4.606;2024-01-15T14:13:14;1.13;;;1.13;;
68821;SDS011;55834;50.870;4.606;2024-01-15T14:15:39;1.30;;;0.50;;
68821;SDS011;55834;50.870;4.606;2024-01-15T14:18:05;1.67;;;0.90;;
68821;SDS011;55834;50.870;4.606;2024-01-15T14:20:30;1.30;;;0.55;;
68821;SDS011;55834;50.870;4.606;2024-01-15T14:22:56;0.77;;;0.77;;
68821;SDS011;55834;50.870;4.606;2024-01-15T14:25:21;1.20;;;1.10;;
68821;SDS011;55834;50.870;4.606;2024-01-15T14:27:47;2.40;;;0.90;;
68821;SDS011;55834;50.870;4.606;2024-01-15T14:30:12;1.25;;;0.95;;
68821;SDS011;55834;50.870;4.606;2024-01-15T14:32:39;1.10;;;0.82;;
68821;SDS011;55834;50.870;4.606;2024-01-15T14:35:06;1.23;;;1.13;;
68821;SDS011;55834;50.870;4.606;2024-01-15T14:37:33;5.13;;;1.30;;
68821;SDS011;55834;50.870;4.606;2024-01-15T14:39:58;3.17;;;1.60;;
68821;SDS011;55834;50.870;4.606;2024-01-15T14:42:24;1.60;;;0.88;;
68821;SDS011;55834;50.870;4.606;2024-01-15T14:44:49;3.10;;;1.45;;
68821;SDS011;55834;50.870;4.606;2024-01-15T14:47:15;4.88;;;1.60;;
68821;SDS011;55834;50.870;4.606;2024-01-15T14:49:40;3.00;;;1.60;;
68821;SDS011;55834;50.870;4.606;2024-01-15T14:52:06;2.00;;;1.80;;